createdAt,value
2022-10-10T00:00:33.515Z,4.63
2022-10-10T00:03:01.974Z,4.80
2022-10-10T00:05:30.379Z,5.47
2022-10-10T00:07:58.955Z,5.03
2022-10-10T00:10:27.388Z,4.93
2022-10-10T00:13:00.326Z,4.90
2022-10-10T00:15:28.786Z,4.60
2022-10-10T00:17:57.217Z,4.73
2022-10-10T00:20:28.051Z,4.77
2022-10-10T00:22:56.684Z,5.10
2022-10-10T00:25:25.166Z,5.30
2022-10-10T00:27:53.586Z,5.20
2022-10-10T00:30:23.775Z,4.67
2022-10-10T00:32:52.364Z,5.40
2022-10-10T00:35:21.330Z,5.63
2022-10-10T00:37:49.733Z,4.80
2022-10-10T00:40:18.189Z,4.97
2022-10-10T00:42:46.632Z,5.33
2022-10-10T00:45:27.885Z,5.03
2022-10-10T00:47:58.662Z,5.23
2022-10-10T00:50:27.327Z,6.00
2022-10-10T00:52:55.990Z,5.97
2022-10-10T00:55:24.475Z,6.00
2022-10-10T00:57:53.187Z,5.93
2022-10-10T01:00:21.824Z,5.50
2022-10-10T01:02:51.935Z,5.30
2022-10-10T01:05:20.878Z,5.33
2022-10-10T01:07:49.317Z,5.53
2022-10-10T01:10:19.418Z,5.00
2022-10-10T01:12:54.414Z,5.67
2022-10-10T01:15:26.721Z,5.13
2022-10-10T01:18:00.094Z,6.00
2022-10-10T01:20:32.983Z,5.87
2022-10-10T01:23:16.269Z,5.93
2022-10-10T01:25:51.435Z,6.33
2022-10-10T01:28:26.658Z,5.87
2022-10-10T01:30:56.776Z,5.53
2022-10-10T01:33:28.353Z,6.27
2022-10-10T01:35:59.082Z,6.83
2022-10-10T01:38:31.083Z,5.57
2022-10-10T01:41:04.584Z,6.03
2022-10-10T01:43:34.374Z,5.50
2022-10-10T01:46:11.009Z,6.67
2022-10-10T01:48:41.922Z,6.13
2022-10-10T01:51:18.405Z,5.90
2022-10-10T01:53:50.436Z,6.53
2022-10-10T01:56:23.847Z,6.47
2022-10-10T01:59:06.264Z,6.10
2022-10-10T02:01:36.996Z,7.10
2022-10-10T02:04:09.040Z,7.07
2022-10-10T02:06:40.230Z,6.53
2022-10-10T02:09:10.721Z,7.30
2022-10-10T02:11:40.242Z,6.53
2022-10-10T02:14:13.312Z,6.00
2022-10-10T02:16:44.244Z,6.67
2022-10-10T02:19:16.810Z,7.40
2022-10-10T02:21:46.332Z,7.90
2022-10-10T02:24:15.086Z,7.57
2022-10-10T02:26:45.827Z,7.63
2022-10-10T02:29:18.539Z,7.40
2022-10-10T02:31:50.171Z,7.07
2022-10-10T02:34:19.686Z,6.57
2022-10-10T02:36:51.210Z,7.30
2022-10-10T02:39:20.715Z,8.90
2022-10-10T02:41:50.952Z,8.57
2022-10-10T02:44:20.917Z,8.40
2022-10-10T02:46:49.440Z,8.63
2022-10-10T02:49:24.397Z,8.80
2022-10-10T02:51:55.840Z,10.13
2022-10-10T02:54:24.788Z,10.27
2022-10-10T02:56:53.220Z,9.97
2022-10-10T02:59:26.066Z,9.30
2022-10-10T03:01:54.500Z,10.20
2022-10-10T03:04:22.938Z,11.30
2022-10-10T03:06:51.437Z,12.53
2022-10-10T03:09:19.904Z,14.90
2022-10-10T03:11:48.331Z,12.83
2022-10-10T03:14:16.779Z,11.40
2022-10-10T03:16:46.584Z,12.07
2022-10-10T03:19:14.986Z,15.40
2022-10-10T03:21:43.387Z,15.63
2022-10-10T03:24:11.839Z,13.53
2022-10-10T03:26:40.341Z,14.10
2022-10-10T03:29:08.948Z,13.33
2022-10-10T03:31:37.376Z,17.50
2022-10-10T03:34:07.195Z,17.40
2022-10-10T03:36:35.666Z,13.77
2022-10-10T03:39:04.125Z,13.67
2022-10-10T03:41:35.472Z,13.10
2022-10-10T03:44:04.609Z,15.07
2022-10-10T03:46:33.053Z,16.03
2022-10-10T03:49:01.492Z,16.33
2022-10-10T03:51:31.270Z,14.70
2022-10-10T03:54:01.755Z,17.40
2022-10-10T03:56:32.272Z,15.97
2022-10-10T03:59:03.711Z,13.23
2022-10-10T04:01:32.443Z,13.50
2022-10-10T04:04:00.905Z,14.67
2022-10-10T04:06:30.659Z,14.93
2022-10-10T04:08:59.090Z,16.27
2022-10-10T04:11:27.505Z,14.63
2022-10-10T04:13:55.988Z,14.47
2022-10-10T04:16:24.388Z,16.90
2022-10-10T04:18:52.809Z,14.30
2022-10-10T04:21:21.244Z,17.00
2022-10-10T04:23:51.049Z,13.17
2022-10-10T04:26:19.483Z,13.17
2022-10-10T04:28:47.942Z,12.67
2022-10-10T04:31:16.425Z,17.87
2022-10-10T04:33:44.873Z,16.83
2022-10-10T04:36:13.278Z,16.70
2022-10-10T04:38:41.683Z,15.97
2022-10-10T04:41:11.483Z,14.40
2022-10-10T04:43:39.996Z,14.67
2022-10-10T04:46:08.946Z,16.43
2022-10-10T04:48:38.330Z,18.47
2022-10-10T04:51:06.975Z,18.53
2022-10-10T04:53:35.483Z,16.00
2022-10-10T04:56:04.618Z,16.10
2022-10-10T04:58:34.419Z,15.70
2022-10-10T05:01:04.305Z,14.30
2022-10-10T05:03:33.015Z,13.27
2022-10-10T05:06:01.483Z,13.97
2022-10-10T05:08:30.639Z,12.87
2022-10-10T05:10:59.138Z,12.77
2022-10-10T05:13:27.639Z,11.13
2022-10-10T05:15:57.552Z,10.93
2022-10-10T05:18:26.058Z,9.20
2022-10-10T05:20:54.460Z,9.80
2022-10-10T05:23:22.871Z,8.87
2022-10-10T05:25:52.112Z,8.13
2022-10-10T05:28:20.924Z,8.57
2022-10-10T05:30:49.676Z,8.40
2022-10-10T05:33:19.483Z,7.30
2022-10-10T05:35:48.757Z,8.27
2022-10-10T05:38:17.259Z,8.97
2022-10-10T05:40:45.746Z,8.77
2022-10-10T05:43:15.087Z,8.53
2022-10-10T05:45:44.473Z,8.60
2022-10-10T05:48:13.321Z,8.70
2022-10-10T05:50:47.603Z,9.27
2022-10-10T05:53:16.047Z,7.10
2022-10-10T05:55:44.616Z,6.80
2022-10-10T05:58:14.251Z,6.60
2022-10-10T06:00:43.033Z,7.07
2022-10-10T06:03:13.997Z,7.83
2022-10-10T06:05:44.404Z,6.10
2022-10-10T06:08:13.487Z,6.03
2022-10-10T06:10:42.879Z,5.97
2022-10-10T06:13:11.569Z,5.07
2022-10-10T06:15:40.178Z,5.97
2022-10-10T06:18:09.048Z,4.67
2022-10-10T06:20:37.577Z,4.37
2022-10-10T06:23:07.814Z,4.93
2022-10-10T06:25:41.459Z,4.80
2022-10-10T06:28:10.499Z,3.90
2022-10-10T06:30:41.561Z,4.27
2022-10-10T06:33:10.073Z,4.00
2022-10-10T06:35:42.151Z,3.83
2022-10-10T06:38:12.286Z,3.43
2022-10-10T06:40:40.753Z,3.50
2022-10-10T06:43:11.990Z,4.63
2022-10-10T06:45:41.109Z,4.40
2022-10-10T06:48:09.698Z,4.00
2022-10-10T06:50:38.255Z,4.17
2022-10-10T06:53:07.012Z,4.37
2022-10-10T06:55:36.853Z,3.97
2022-10-10T06:58:05.444Z,3.93
2022-10-10T07:00:33.935Z,3.70
2022-10-10T07:03:02.418Z,3.40
2022-10-10T07:05:30.859Z,3.57
2022-10-10T07:07:59.340Z,3.47
2022-10-10T07:10:27.784Z,3.30
2022-10-10T07:12:57.860Z,3.83
2022-10-10T07:15:26.617Z,3.30
2022-10-10T07:17:58.829Z,3.93
2022-10-10T07:20:27.357Z,3.83
2022-10-10T07:22:55.805Z,3.90
2022-10-10T07:25:24.401Z,3.43
2022-10-10T07:27:52.948Z,3.90
2022-10-10T07:30:22.736Z,3.47
2022-10-10T07:32:51.532Z,3.80
2022-10-10T07:35:20.393Z,3.77
2022-10-10T07:37:48.986Z,3.70
2022-10-10T07:40:17.514Z,3.60
2022-10-10T07:42:45.944Z,3.70
2022-10-10T07:45:14.333Z,3.50
2022-10-10T07:47:44.142Z,4.60
2022-10-10T07:50:13.025Z,3.30
2022-10-10T07:52:42.317Z,3.50
2022-10-10T07:55:11.195Z,3.90
2022-10-10T07:57:39.782Z,3.03
2022-10-10T08:00:09.619Z,3.23
2022-10-10T08:02:40.986Z,2.90
2022-10-10T08:05:12.665Z,3.40
2022-10-10T08:07:41.224Z,3.23
2022-10-10T08:10:10.325Z,3.00
2022-10-10T08:12:38.992Z,3.13
2022-10-10T08:15:08.102Z,3.23
2022-10-10T08:17:36.630Z,3.00
2022-10-10T08:20:05.161Z,2.37
2022-10-10T08:22:35.005Z,3.00
2022-10-10T08:25:03.848Z,2.87
2022-10-10T08:27:32.342Z,2.90
2022-10-10T08:30:00.791Z,3.10
2022-10-10T08:32:29.218Z,3.20
2022-10-10T08:34:57.702Z,3.30
2022-10-10T08:37:31.644Z,2.80
2022-10-10T08:40:03.763Z,3.17
2022-10-10T08:42:53.038Z,2.90
2022-10-10T08:45:23.600Z,3.43
2022-10-10T08:47:56.133Z,3.20
2022-10-10T08:50:27.130Z,3.50
2022-10-10T08:52:58.359Z,3.13
2022-10-10T08:55:30.952Z,2.90
2022-10-10T08:58:01.184Z,3.03
2022-10-10T09:00:32.221Z,2.67
2022-10-10T09:03:01.601Z,3.73
2022-10-10T09:05:37.358Z,2.87
2022-10-10T09:08:13.102Z,3.57
2022-10-10T09:10:48.760Z,3.10
2022-10-10T09:13:25.361Z,3.40
2022-10-10T09:15:56.450Z,3.50
2022-10-10T09:18:32.262Z,3.30
2022-10-10T09:21:04.517Z,3.30
2022-10-10T09:23:35.280Z,3.10
2022-10-10T09:26:11.035Z,2.80
2022-10-10T09:28:41.502Z,3.17
2022-10-10T09:31:13.416Z,3.63
2022-10-10T09:33:43.677Z,2.93
2022-10-10T09:36:14.231Z,3.60
2022-10-10T09:38:44.749Z,3.10
2022-10-10T09:41:17.037Z,3.63
2022-10-10T09:43:45.707Z,3.63
2022-10-10T09:46:14.715Z,2.77
2022-10-10T09:48:43.713Z,3.08
2022-10-10T09:51:15.269Z,3.70
2022-10-10T09:53:43.944Z,3.40
2022-10-10T09:56:17.921Z,3.07
2022-10-10T09:58:47.411Z,2.85
2022-10-10T10:01:17.572Z,3.25
2022-10-10T10:03:46.198Z,3.67
2022-10-10T10:06:15.510Z,3.05
2022-10-10T10:08:47.962Z,3.45
2022-10-10T10:11:31.041Z,3.10
2022-10-10T10:14:02.387Z,2.83
2022-10-10T10:16:32.329Z,3.08
2022-10-10T10:19:01.626Z,2.95
2022-10-10T10:21:30.541Z,2.65
2022-10-10T10:24:21.608Z,2.58
2022-10-10T10:26:51.745Z,2.88
2022-10-10T10:29:38.793Z,2.75
2022-10-10T10:32:15.442Z,2.63
2022-10-10T10:35:04.707Z,3.10
2022-10-10T10:37:38.439Z,2.65
2022-10-10T10:40:20.809Z,2.60
2022-10-10T10:42:59.333Z,2.35
2022-10-10T10:45:32.049Z,2.40
2022-10-10T10:48:07.461Z,2.58
2022-10-10T10:50:41.748Z,2.60
2022-10-10T10:53:14.920Z,3.22
2022-10-10T10:55:46.720Z,2.60
2022-10-10T11:01:44.803Z,2.38
2022-10-10T11:05:17.390Z,1.95
2022-10-10T11:07:20.313Z,2.38
2022-10-10T11:09:55.196Z,2.15
2022-10-10T11:12:28.999Z,2.40
2022-10-10T11:15:01.429Z,2.25
2022-10-10T11:17:37.209Z,2.10
2022-10-10T11:20:10.505Z,2.50
2022-10-10T11:22:46.228Z,2.40
2022-10-10T11:25:24.110Z,2.10
2022-10-10T11:27:55.006Z,2.17
2022-10-10T11:30:36.528Z,2.60
2022-10-10T11:33:12.259Z,1.77
2022-10-10T11:35:45.009Z,2.20
2022-10-10T11:38:17.100Z,2.30
2022-10-10T11:40:55.052Z,1.95
2022-10-10T11:43:26.926Z,2.15
2022-10-10T11:46:03.208Z,2.00
2022-10-10T11:48:39.111Z,2.05
2022-10-10T11:51:16.255Z,2.17
2022-10-10T11:53:46.686Z,2.08
2022-10-10T11:56:20.953Z,1.90
2022-10-10T11:58:54.419Z,2.03
2022-10-10T12:01:25.745Z,2.42
2022-10-10T12:03:56.139Z,2.20
2022-10-10T12:06:26.822Z,2.38
2022-10-10T12:08:59.934Z,2.25
2022-10-10T12:11:31.972Z,2.35
2022-10-10T12:14:01.759Z,2.30
2022-10-10T12:16:32.680Z,2.10
2022-10-10T12:19:05.364Z,2.33
2022-10-10T12:21:34.609Z,2.20
2022-10-10T12:24:05.527Z,2.25
2022-10-10T12:26:52.439Z,2.17
2022-10-10T12:29:41.159Z,2.15
2022-10-10T12:32:25.152Z,2.17
2022-10-10T12:35:00.557Z,2.25
2022-10-10T12:37:30.320Z,2.13
2022-10-10T12:40:16.687Z,2.60
2022-10-10T12:43:00.054Z,2.47
2022-10-10T12:45:47.556Z,2.40
2022-10-10T12:48:22.097Z,2.50
2022-10-10T12:50:57.469Z,2.80
2022-10-10T12:53:29.803Z,2.40
2022-10-10T12:56:00.731Z,2.40
2022-10-10T12:58:30.302Z,2.40
2022-10-10T13:01:00.309Z,2.08
2022-10-10T13:03:34.620Z,2.20
2022-10-10T13:06:05.997Z,2.60
2022-10-10T13:08:37.776Z,2.45
2022-10-10T13:11:07.934Z,2.08
2022-10-10T13:13:37.296Z,2.30
2022-10-10T13:16:10.703Z,2.60
2022-10-10T13:18:43.162Z,2.45
2022-10-10T13:21:13.362Z,1.90
2022-10-10T13:23:43.872Z,2.10
2022-10-10T13:26:22.204Z,2.40
2022-10-10T13:28:51.034Z,2.70
2022-10-10T13:31:19.885Z,2.72
2022-10-10T13:33:49.802Z,2.38
2022-10-10T13:36:21.577Z,2.72
2022-10-10T13:38:50.336Z,2.28
2022-10-10T13:41:19.201Z,2.50
2022-10-10T13:43:47.685Z,2.78
2022-10-10T13:46:21.793Z,2.80
2022-10-10T13:48:51.790Z,2.45
2022-10-10T13:51:20.361Z,2.33
2022-10-10T13:53:53.313Z,2.70
2022-10-10T13:56:24.033Z,2.58
2022-10-10T13:58:53.574Z,2.88
2022-10-10T14:01:24.195Z,2.85
2022-10-10T14:03:55.680Z,2.85
2022-10-10T14:06:26.465Z,2.50
2022-10-10T14:08:55.515Z,2.95
2022-10-10T14:11:25.779Z,2.60
2022-10-10T14:13:56.209Z,2.45
2022-10-10T14:16:26.338Z,3.00
2022-10-10T14:18:56.158Z,2.60
2022-10-10T14:21:24.675Z,2.80
2022-10-10T14:23:53.451Z,2.80
2022-10-10T14:26:23.316Z,2.58
2022-10-10T14:28:51.988Z,2.50
2022-10-10T14:31:21.004Z,2.20
2022-10-10T14:33:49.429Z,2.20
2022-10-10T14:36:19.233Z,2.72
2022-10-10T14:38:47.715Z,3.10
2022-10-10T14:41:19.127Z,2.95
2022-10-10T14:43:47.579Z,2.83
2022-10-10T14:46:18.874Z,2.67
2022-10-10T14:48:47.433Z,2.47
2022-10-10T14:51:33.701Z,2.67
2022-10-10T14:54:13.466Z,2.70
2022-10-10T14:57:07.714Z,2.38
2022-10-10T14:59:47.572Z,2.50
2022-10-10T15:02:19.325Z,2.45
2022-10-10T15:04:47.874Z,2.53
2022-10-10T15:07:16.710Z,2.40
2022-10-10T15:12:37.544Z,2.55
2022-10-10T15:15:06.720Z,2.78
2022-10-10T15:17:35.457Z,2.70
2022-10-10T15:20:04.110Z,2.75
2022-10-10T15:22:32.625Z,2.72
2022-10-10T15:25:02.890Z,2.70
2022-10-10T15:27:32.792Z,2.55
2022-10-10T15:30:01.710Z,2.67
2022-10-10T15:32:30.358Z,2.83
2022-10-10T15:34:58.946Z,2.97
2022-10-10T15:37:28.023Z,2.50
2022-10-10T15:39:57.008Z,2.65
2022-10-10T15:42:27.105Z,2.65
2022-10-10T15:44:55.919Z,2.80
2022-10-10T15:47:24.847Z,2.80
2022-10-10T15:49:53.360Z,2.92
2022-10-10T15:52:23.248Z,3.05
2022-10-10T15:54:51.829Z,2.70
2022-10-10T15:57:20.683Z,2.88
2022-10-10T15:59:50.499Z,2.47
2022-10-10T16:02:19.192Z,2.70
2022-10-10T16:04:48.038Z,3.10
2022-10-10T16:07:38.488Z,2.83
2022-10-10T16:10:05.094Z,2.97
2022-10-10T16:12:33.556Z,2.80
2022-10-10T16:15:07.064Z,2.88
2022-10-10T16:17:35.924Z,3.17
2022-10-10T16:20:04.531Z,3.92
2022-10-10T16:22:33.051Z,3.10
2022-10-10T16:27:49.997Z,2.95
2022-10-10T16:30:20.620Z,3.10
2022-10-10T16:32:49.248Z,3.95
2022-10-10T16:35:17.842Z,3.60
2022-10-10T16:37:46.296Z,4.03
2022-10-10T16:40:14.701Z,3.53
2022-10-10T16:42:43.297Z,3.35
2022-10-10T16:45:12.520Z,3.22
2022-10-10T16:47:42.291Z,3.38
2022-10-10T16:50:11.187Z,3.33
2022-10-10T16:52:40.428Z,4.80
2022-10-10T16:55:09.172Z,5.03
2022-10-10T16:57:38.178Z,4.05
2022-10-10T17:00:07.507Z,3.88
2022-10-10T17:02:38.712Z,3.78
2022-10-10T17:05:09.050Z,4.18
2022-10-10T17:07:37.624Z,3.85
2022-10-10T17:10:06.774Z,3.75
2022-10-10T17:12:35.253Z,4.07
2022-10-10T17:15:03.856Z,4.40
2022-10-10T17:17:32.447Z,4.30
2022-10-10T17:20:02.142Z,3.80
2022-10-10T17:22:32.179Z,4.10
2022-10-10T17:25:00.623Z,4.20
2022-10-10T17:27:29.242Z,4.72
2022-10-10T17:29:57.760Z,5.00
2022-10-10T17:32:26.548Z,4.97
2022-10-10T17:34:55.689Z,5.43
2022-10-10T17:37:24.159Z,6.10
2022-10-10T17:39:54.155Z,5.10
2022-10-10T17:42:22.739Z,6.70
2022-10-10T17:44:56.205Z,7.47
2022-10-10T17:47:24.783Z,7.90
2022-10-10T17:49:53.339Z,6.30
2022-10-10T17:52:21.950Z,6.27
2022-10-10T17:54:50.479Z,6.30
2022-10-10T17:57:20.352Z,7.10
2022-10-10T17:59:48.830Z,6.90
2022-10-10T18:02:18.032Z,6.30
2022-10-10T18:04:46.680Z,6.00
2022-10-10T18:07:15.628Z,6.50
2022-10-10T18:09:44.050Z,6.60
2022-10-10T18:12:12.804Z,6.53
2022-10-10T18:14:42.586Z,7.00
2022-10-10T18:17:11.333Z,6.73
2022-10-10T18:19:39.809Z,6.20
2022-10-10T18:22:08.390Z,6.60
2022-10-10T18:24:36.876Z,5.80
2022-10-10T18:27:06.526Z,6.13
2022-10-10T18:29:35.482Z,6.67
2022-10-10T18:32:05.832Z,5.83
2022-10-10T18:34:34.260Z,6.20
2022-10-10T18:37:02.799Z,6.07
2022-10-10T18:39:33.318Z,7.07
2022-10-10T18:42:01.942Z,6.07
2022-10-10T18:44:30.662Z,6.43
2022-10-10T18:46:59.449Z,5.80
2022-10-10T18:49:29.284Z,6.60
2022-10-10T18:51:57.740Z,6.13
2022-10-10T18:54:27.315Z,6.83
2022-10-10T18:56:55.748Z,7.43
2022-10-10T18:59:26.387Z,6.07
2022-10-10T19:01:56.062Z,5.70
2022-10-10T19:04:24.756Z,6.33
2022-10-10T19:06:57.651Z,6.50
2022-10-10T19:09:26.821Z,6.50
2022-10-10T19:11:55.476Z,7.50
2022-10-10T19:14:23.908Z,10.30
2022-10-10T19:16:52.381Z,11.00
2022-10-10T19:19:21.196Z,22.90
2022-10-10T19:21:50.380Z,8.27
2022-10-10T19:24:21.514Z,8.07
2022-10-10T19:26:54.784Z,8.30
2022-10-10T19:29:23.606Z,8.50
2022-10-10T19:31:52.319Z,7.47
2022-10-10T19:34:20.880Z,8.73
2022-10-10T19:36:49.459Z,8.67
2022-10-10T19:39:17.876Z,8.70
2022-10-10T19:41:47.693Z,8.70
2022-10-10T19:44:16.182Z,8.03
2022-10-10T19:46:44.629Z,7.70
2022-10-10T19:49:13.116Z,7.30
2022-10-10T19:51:41.550Z,7.27
2022-10-10T19:54:13.186Z,7.53
2022-10-10T19:56:41.618Z,8.80
2022-10-10T19:59:11.572Z,9.63
2022-10-10T20:01:40.801Z,9.50
2022-10-10T20:04:09.233Z,9.73
2022-10-10T20:06:37.699Z,13.07
2022-10-10T20:09:10.372Z,10.03
2022-10-10T20:11:39.446Z,10.03
2022-10-10T20:14:08.255Z,9.20
2022-10-10T20:16:38.242Z,9.03
2022-10-10T20:19:06.728Z,8.83
2022-10-10T20:21:35.645Z,8.57
2022-10-10T20:24:06.019Z,9.07
2022-10-10T20:26:35.172Z,9.00
2022-10-10T20:29:03.998Z,9.00
2022-10-10T20:31:34.903Z,10.03
2022-10-10T20:34:05.337Z,9.83
2022-10-10T20:36:34.587Z,9.53
2022-10-10T20:39:04.806Z,9.93
2022-10-10T20:41:34.276Z,8.60
2022-10-10T20:44:04.428Z,11.17
2022-10-10T20:46:34.958Z,10.20
2022-10-10T20:49:06.416Z,10.03
2022-10-10T20:51:34.947Z,8.50
2022-10-10T20:54:04.461Z,9.87
2022-10-10T20:56:33.470Z,11.20
2022-10-10T20:59:02.225Z,10.63
2022-10-10T21:01:31.897Z,11.93
2022-10-10T21:04:00.431Z,10.90
2022-10-10T21:06:32.535Z,11.17
2022-10-10T21:09:01.778Z,10.40
2022-10-10T21:11:30.240Z,11.07
2022-10-10T21:13:59.593Z,10.53
2022-10-10T21:16:29.085Z,8.70
2022-10-10T21:18:58.755Z,9.83
2022-10-10T21:21:28.305Z,9.87
2022-10-10T21:23:59.448Z,9.97
2022-10-10T21:26:28.698Z,9.50
2022-10-10T21:28:57.830Z,11.70
2022-10-10T21:31:26.941Z,9.73
2022-10-10T21:33:55.588Z,10.10
2022-10-10T21:36:24.979Z,11.20
2022-10-10T21:38:56.941Z,9.47
2022-10-10T21:41:27.174Z,10.00
2022-10-10T21:43:56.607Z,8.43
2022-10-10T21:46:28.605Z,8.13
2022-10-10T21:48:59.419Z,8.60
2022-10-10T21:51:27.919Z,8.73
2022-10-10T21:53:57.705Z,8.87
2022-10-10T21:56:27.671Z,8.60
2022-10-10T21:59:00.878Z,8.67
2022-10-10T22:01:32.981Z,9.63
2022-10-10T22:04:02.429Z,8.37
2022-10-10T22:06:31.625Z,8.90
2022-10-10T22:09:00.591Z,9.30
2022-10-10T22:11:31.458Z,9.63
2022-10-10T22:14:02.260Z,8.30
2022-10-10T22:16:30.927Z,8.17
2022-10-10T22:18:59.659Z,9.43
2022-10-10T22:21:31.560Z,9.17
2022-10-10T22:24:01.483Z,8.60
2022-10-10T22:26:31.757Z,8.90
2022-10-10T22:29:03.181Z,8.97
2022-10-10T22:31:31.643Z,8.80
2022-10-10T22:34:00.145Z,8.70
2022-10-10T22:36:30.730Z,8.57
2022-10-10T22:38:59.115Z,9.03
2022-10-10T22:41:27.526Z,7.57
2022-10-10T22:43:57.285Z,8.47
2022-10-10T22:46:26.303Z,7.90
2022-10-10T22:48:54.728Z,7.97
2022-10-10T22:51:23.281Z,6.80
2022-10-10T22:53:51.715Z,8.07
2022-10-10T22:56:20.875Z,7.97
2022-10-10T22:58:49.830Z,8.13
2022-10-10T23:01:20.724Z,8.43
2022-10-10T23:03:49.326Z,7.53
2022-10-10T23:06:17.956Z,8.23
2022-10-10T23:08:46.351Z,8.67
2022-10-10T23:11:14.786Z,7.33
2022-10-10T23:13:43.549Z,8.00
2022-10-10T23:16:12.206Z,7.60
2022-10-10T23:18:42.062Z,8.00
2022-10-10T23:21:10.510Z,6.70
2022-10-10T23:23:39.816Z,7.30
2022-10-10T23:26:09.120Z,7.40
2022-10-10T23:28:39.444Z,8.10
2022-10-10T23:31:11.375Z,7.83
2022-10-10T23:33:40.577Z,7.70
2022-10-10T23:36:14.235Z,7.50
2022-10-10T23:38:45.465Z,7.50
2022-10-10T23:41:14.834Z,7.17
2022-10-10T23:43:43.278Z,8.10
2022-10-10T23:46:11.715Z,6.90
2022-10-10T23:48:40.199Z,7.77
2022-10-10T23:51:10.042Z,7.53
2022-10-10T23:53:38.516Z,7.53
2022-10-10T23:56:07.605Z,8.73
2022-10-10T23:58:36.798Z,6.60
